createdAt,value
2019-03-21T00:01:36.192Z,103214.52
2019-03-21T00:04:11.198Z,103212.46
2019-03-21T00:06:40.777Z,103207.78
2019-03-21T00:09:12.502Z,103214.46
2019-03-21T00:12:03.899Z,103224.30
2019-03-21T00:15:12.231Z,103227.23
2019-03-21T00:17:47.659Z,103220.15
2019-03-21T00:20:17.915Z,103222.20
2019-03-21T00:22:47.455Z,103223.14
2019-03-21T00:25:19.569Z,103224.80
2019-03-21T00:27:49.263Z,103227.86
2019-03-21T00:30:20.501Z,103220.59
2019-03-21T00:32:50.048Z,103223.67
2019-03-21T00:35:19.636Z,103228.33
2019-03-21T00:37:49.627Z,103221.70
2019-03-21T00:40:22.653Z,103215.26
2019-03-21T00:42:52.398Z,103213.94
2019-03-21T00:45:21.972Z,103205.13
2019-03-21T00:47:51.646Z,103202.87
2019-03-21T00:50:22.474Z,103203.80
2019-03-21T00:52:53.204Z,103209.19
2019-03-21T00:55:23.123Z,103199.45
2019-03-21T00:57:52.664Z,103210.14
2019-03-21T01:00:25.350Z,103205.02
2019-03-21T01:02:54.898Z,103198.73
2019-03-21T01:05:24.484Z,103196.63
2019-03-21T01:07:54.033Z,103201.69
2019-03-21T01:10:24.415Z,103202.84
2019-03-21T01:12:53.958Z,103194.33
2019-03-21T01:15:23.497Z,103189.16
2019-03-21T01:17:53.150Z,103187.98
2019-03-21T01:20:22.692Z,103189.67
2019-03-21T01:22:52.525Z,103195.58
2019-03-21T01:25:28.391Z,103199.29
2019-03-21T01:27:58.034Z,103193.71
2019-03-21T01:30:27.637Z,103186.07
2019-03-21T01:32:57.181Z,103184.85
2019-03-21T01:35:26.734Z,103189.45
2019-03-21T01:37:56.309Z,103181.01
2019-03-21T01:40:26.536Z,103175.84
2019-03-21T01:42:56.577Z,103182.16
2019-03-21T01:45:26.216Z,103175.48
2019-03-21T01:47:55.774Z,103170.75
2019-03-21T01:50:25.389Z,103176.63
2019-03-21T01:52:54.968Z,103170.75
2019-03-21T01:55:24.511Z,103175.33
2019-03-21T01:57:54.024Z,103181.64
2019-03-21T02:00:26.546Z,103171.87
2019-03-21T02:02:57.517Z,103176.58
2019-03-21T02:05:27.209Z,103176.16
2019-03-21T02:07:56.804Z,103171.53
2019-03-21T02:10:26.493Z,103173.14
2019-03-21T02:12:55.959Z,103168.03
2019-03-21T02:15:25.654Z,103161.59
2019-03-21T02:17:55.237Z,103165.63
2019-03-21T02:20:24.782Z,103170.67
2019-03-21T02:22:54.373Z,103163.73
2019-03-21T02:25:25.893Z,103151.02
2019-03-21T02:27:55.643Z,103151.84
2019-03-21T02:30:27.883Z,103147.64
2019-03-21T02:33:00.702Z,103146.75
2019-03-21T02:35:31.114Z,103140.31
2019-03-21T02:41:28.881Z,103140.41
2019-03-21T02:43:58.452Z,103133.02
2019-03-21T02:46:28.033Z,103133.93
2019-03-21T02:48:57.735Z,103128.02
2019-03-21T02:51:27.279Z,103127.41
2019-03-21T02:53:56.859Z,103124.95
2019-03-21T02:56:26.506Z,103124.03
2019-03-21T02:58:56.378Z,103113.09
2019-03-21T03:01:25.965Z,103118.20
2019-03-21T03:03:56.008Z,103119.83
2019-03-21T03:06:25.589Z,103113.86
2019-03-21T03:08:55.075Z,103118.06
2019-03-21T03:11:25.016Z,103115.61
2019-03-21T03:13:54.602Z,103110.35
2019-03-21T03:16:24.232Z,103110.02
2019-03-21T03:18:54.349Z,103105.35
2019-03-21T03:21:23.884Z,103109.17
2019-03-21T03:23:53.362Z,103117.63
2019-03-21T03:26:22.943Z,103112.15
2019-03-21T03:28:52.572Z,103120.55
2019-03-21T03:31:22.031Z,103119.25
2019-03-21T03:33:51.579Z,103117.03
2019-03-21T03:36:21.165Z,103115.31
2019-03-21T03:38:50.747Z,103117.47
2019-03-21T03:41:20.315Z,103105.15
2019-03-21T03:43:49.850Z,103114.61
2019-03-21T03:46:19.385Z,103111.20
2019-03-21T03:48:48.968Z,103116.29
2019-03-21T03:51:18.530Z,103113.22
2019-03-21T03:53:48.172Z,103104.41
2019-03-21T03:56:18.077Z,103109.55
2019-03-21T03:58:48.791Z,103112.92
2019-03-21T04:01:18.387Z,103108.22
2019-03-21T04:03:48.181Z,103105.69
2019-03-21T04:06:17.997Z,103107.63
2019-03-21T04:08:47.543Z,103102.52
2019-03-21T04:11:17.109Z,103108.52
2019-03-21T04:13:46.731Z,103108.40
2019-03-21T04:16:16.271Z,103107.63
2019-03-21T04:18:45.865Z,103106.00
2019-03-21T04:21:15.471Z,103119.57
2019-03-21T04:23:45.311Z,103117.65
2019-03-21T04:26:21.241Z,103111.71
2019-03-21T04:28:50.859Z,103100.66
2019-03-21T04:31:20.455Z,103092.67
2019-03-21T04:33:50.328Z,103096.70
2019-03-21T04:36:19.903Z,103094.52
2019-03-21T04:38:49.569Z,103104.30
2019-03-21T04:41:19.039Z,103101.02
2019-03-21T04:43:48.619Z,103107.69
2019-03-21T04:46:18.202Z,103106.95
2019-03-21T04:48:47.711Z,103105.27
2019-03-21T04:51:17.299Z,103110.62
2019-03-21T04:53:46.909Z,103103.38
2019-03-21T04:56:16.843Z,103100.87
2019-03-21T04:58:46.313Z,103108.13
2019-03-21T05:01:15.839Z,103104.62
2019-03-21T05:03:45.376Z,103112.69
2019-03-21T05:06:14.934Z,103113.72
2019-03-21T05:08:44.520Z,103118.63
2019-03-21T05:11:14.143Z,103118.27
2019-03-21T05:13:43.734Z,103126.37
2019-03-21T05:16:14.989Z,103124.56
2019-03-21T05:18:45.412Z,103130.48
2019-03-21T05:21:15.942Z,103121.17
2019-03-21T05:23:45.538Z,103118.69
2019-03-21T05:26:15.498Z,103121.22
2019-03-21T05:28:45.043Z,103111.50
2019-03-21T05:31:18.100Z,103112.03
2019-03-21T05:33:47.800Z,103115.99
2019-03-21T05:36:17.341Z,103109.41
2019-03-21T05:38:46.915Z,103114.48
2019-03-21T05:41:16.603Z,103115.47
2019-03-21T05:43:59.103Z,103118.01
2019-03-21T05:46:29.054Z,103125.72
2019-03-21T05:48:58.600Z,103129.09
2019-03-21T05:51:28.182Z,103125.25
2019-03-21T05:53:57.724Z,103121.98
2019-03-21T05:56:27.316Z,103126.62
2019-03-21T05:58:56.905Z,103126.62
2019-03-21T06:01:26.481Z,103126.27
2019-03-21T06:03:56.071Z,103136.14
2019-03-21T06:06:34.068Z,103128.84
2019-03-21T06:09:04.803Z,103133.57
2019-03-21T06:11:34.386Z,103127.60
2019-03-21T06:14:04.503Z,103134.92
2019-03-21T06:16:37.864Z,103135.70
2019-03-21T06:19:30.109Z,103143.74
2019-03-21T06:22:18.146Z,103142.00
2019-03-21T06:25:10.658Z,103142.11
2019-03-21T06:27:40.278Z,103142.38
2019-03-21T06:30:11.400Z,103151.42
2019-03-21T06:32:41.059Z,103154.88
2019-03-21T06:35:21.508Z,103162.95
2019-03-21T06:37:51.293Z,103159.25
2019-03-21T06:40:20.891Z,103157.06
2019-03-21T06:42:50.458Z,103161.80
2019-03-21T06:45:19.936Z,103166.94
2019-03-21T06:47:49.506Z,103167.35
2019-03-21T06:50:18.969Z,103158.56
2019-03-21T06:52:48.570Z,103161.63
2019-03-21T06:55:18.198Z,103173.98
2019-03-21T06:57:48.124Z,103172.72
2019-03-21T07:00:17.713Z,103179.05
2019-03-21T07:02:47.178Z,103183.61
2019-03-21T07:05:16.758Z,103200.97
2019-03-21T07:07:46.302Z,103201.44
2019-03-21T07:10:16.082Z,103208.80
2019-03-21T07:12:45.641Z,103210.02
2019-03-21T07:15:15.325Z,103213.59
2019-03-21T07:17:44.857Z,103222.55
2019-03-21T07:20:14.450Z,103222.61
2019-03-21T07:22:44.093Z,103217.05
2019-03-21T07:25:13.772Z,103216.73
2019-03-21T07:27:43.329Z,103217.19
2019-03-21T07:30:14.196Z,103213.91
2019-03-21T07:32:43.783Z,103211.16
2019-03-21T07:35:13.576Z,103209.77
2019-03-21T07:37:43.113Z,103201.89
2019-03-21T07:40:13.198Z,103198.61
2019-03-21T07:42:42.878Z,103209.58
2019-03-21T07:45:12.947Z,103214.47
2019-03-21T07:47:42.486Z,103218.73
2019-03-21T07:50:12.399Z,103222.66
2019-03-21T07:52:41.992Z,103217.53
2019-03-21T07:55:11.913Z,103227.20
2019-03-21T07:57:41.563Z,103223.61
2019-03-21T08:00:12.674Z,103230.41
2019-03-21T08:02:42.301Z,103226.79
2019-03-21T08:05:12.258Z,103236.23
2019-03-21T08:07:41.861Z,103235.98
2019-03-21T08:10:11.675Z,103237.82
2019-03-21T08:12:41.247Z,103245.59
2019-03-21T08:15:11.620Z,103242.56
2019-03-21T08:17:41.313Z,103250.73
2019-03-21T08:20:11.447Z,103254.27
2019-03-21T08:22:41.044Z,103255.17
2019-03-21T08:25:10.848Z,103260.42
2019-03-21T08:27:40.542Z,103248.69
2019-03-21T08:30:16.111Z,103252.73
2019-03-21T08:32:45.703Z,103263.58
2019-03-21T08:35:15.249Z,103267.42
2019-03-21T08:37:44.789Z,103265.35
2019-03-21T08:40:14.784Z,103267.98
2019-03-21T08:42:44.299Z,103269.70
2019-03-21T08:45:14.189Z,103271.13
2019-03-21T08:47:43.739Z,103269.55
2019-03-21T08:50:13.379Z,103260.45
2019-03-21T08:52:42.995Z,103253.27
2019-03-21T08:55:12.685Z,103248.13
2019-03-21T08:57:42.227Z,103260.42
2019-03-21T09:00:11.945Z,103263.84
2019-03-21T09:02:41.535Z,103261.90
2019-03-21T09:05:11.091Z,103257.28
2019-03-21T09:07:40.561Z,103265.77
2019-03-21T09:10:10.575Z,103266.27
2019-03-21T09:12:42.537Z,103262.47
2019-03-21T09:15:11.637Z,103262.97
2019-03-21T09:17:41.271Z,103262.53
2019-03-21T09:20:11.239Z,103262.45
2019-03-21T09:22:40.787Z,103263.26
2019-03-21T09:25:10.632Z,103256.92
2019-03-21T09:27:40.176Z,103265.77
2019-03-21T09:30:10.277Z,103257.34
2019-03-21T09:32:39.833Z,103250.52
2019-03-21T09:35:12.351Z,103248.33
2019-03-21T09:37:41.283Z,103258.97
2019-03-21T09:40:11.157Z,103252.67
2019-03-21T09:42:40.697Z,103259.16
2019-03-21T09:45:10.322Z,103251.88
2019-03-21T09:47:39.962Z,103263.87
2019-03-21T09:50:09.782Z,103250.63
2019-03-21T09:52:39.318Z,103261.73
2019-03-21T09:55:08.953Z,103249.02
2019-03-21T09:57:38.647Z,103258.39
2019-03-21T10:00:08.673Z,103254.92
2019-03-21T10:02:38.215Z,103257.50
2019-03-21T10:05:08.258Z,103254.97
2019-03-21T10:07:37.853Z,103242.16
2019-03-21T10:10:07.420Z,103251.52
2019-03-21T10:12:36.889Z,103253.14
2019-03-21T10:15:06.651Z,103243.80
2019-03-21T10:17:36.244Z,103256.64
2019-03-21T10:20:06.368Z,103243.84
2019-03-21T10:22:35.954Z,103246.35
2019-03-21T10:25:05.818Z,103254.48
2019-03-21T10:27:35.330Z,103239.16
2019-03-21T10:30:05.739Z,103243.09
2019-03-21T10:32:35.339Z,103242.70
2019-03-21T10:35:05.842Z,103241.47
2019-03-21T10:37:35.449Z,103241.92
2019-03-21T10:40:05.527Z,103240.37
2019-03-21T10:42:35.041Z,103243.79
2019-03-21T10:45:05.325Z,103249.34
2019-03-21T10:47:34.907Z,103244.66
2019-03-21T10:50:05.336Z,103239.98
2019-03-21T10:52:35.028Z,103233.69
2019-03-21T10:55:04.944Z,103242.22
2019-03-21T10:57:34.821Z,103225.17
2019-03-21T11:00:05.927Z,103221.81
2019-03-21T11:02:35.470Z,103219.75
2019-03-21T11:05:05.655Z,103226.19
2019-03-21T11:07:35.235Z,103223.19
2019-03-21T11:10:05.557Z,103229.16
2019-03-21T11:12:35.487Z,103236.08
2019-03-21T11:15:05.369Z,103227.13
2019-03-21T11:17:35.315Z,103221.07
2019-03-21T11:20:05.105Z,103225.34
2019-03-21T11:22:34.651Z,103212.09
2019-03-21T11:25:04.486Z,103218.50
2019-03-21T11:27:34.026Z,103238.11
2019-03-21T11:30:11.750Z,103223.58
2019-03-21T11:32:35.378Z,103221.47
2019-03-21T11:35:05.159Z,103221.50
2019-03-21T11:37:34.662Z,103216.77
2019-03-21T11:40:04.319Z,103224.89
2019-03-21T11:42:33.912Z,103221.88
2019-03-21T11:45:03.469Z,103227.52
2019-03-21T11:47:41.611Z,103237.68
2019-03-21T11:50:05.175Z,103244.59
2019-03-21T11:52:34.626Z,103253.55
2019-03-21T11:55:04.654Z,103238.23
2019-03-21T11:57:34.236Z,103233.53
2019-03-21T12:00:04.252Z,103236.06
2019-03-21T12:02:33.799Z,103229.58
2019-03-21T12:05:03.312Z,103239.78
2019-03-21T12:07:32.874Z,103235.95
2019-03-21T12:10:02.476Z,103239.36
2019-03-21T12:12:31.946Z,103233.34
2019-03-21T12:15:01.453Z,103235.48
2019-03-21T12:17:30.921Z,103235.05
2019-03-21T12:20:00.622Z,103232.94
2019-03-21T12:22:30.616Z,103229.97
2019-03-21T12:25:00.342Z,103229.13
2019-03-21T12:27:29.953Z,103227.84
2019-03-21T12:29:59.838Z,103226.56
2019-03-21T12:32:29.427Z,103224.00
2019-03-21T12:34:58.976Z,103228.67
2019-03-21T12:37:28.528Z,103223.14
2019-03-21T12:39:58.120Z,103211.66
2019-03-21T12:42:27.667Z,103205.69
2019-03-21T12:44:57.255Z,103202.78
2019-03-21T12:47:31.138Z,103205.39
2019-03-21T12:49:58.119Z,103202.45
2019-03-21T12:52:27.643Z,103213.13
2019-03-21T12:54:57.202Z,103209.31
2019-03-21T12:57:26.762Z,103203.72
2019-03-21T12:59:56.341Z,103210.55
2019-03-21T13:02:32.210Z,103215.69
2019-03-21T13:04:57.202Z,103222.52
2019-03-21T13:07:26.757Z,103209.30
2019-03-21T13:09:56.446Z,103204.16
2019-03-21T13:12:25.995Z,103205.87
2019-03-21T13:14:55.591Z,103208.45
2019-03-21T13:17:25.181Z,103211.42
2019-03-21T13:19:54.702Z,103216.50
2019-03-21T13:22:24.346Z,103212.66
2019-03-21T13:24:53.864Z,103212.63
2019-03-21T13:27:23.336Z,103209.64
2019-03-21T13:29:52.918Z,103206.63
2019-03-21T13:32:22.394Z,103209.11
2019-03-21T13:34:52.277Z,103218.05
2019-03-21T13:37:21.787Z,103218.05
2019-03-21T13:39:51.263Z,103214.20
2019-03-21T13:42:20.852Z,103204.34
2019-03-21T13:44:51.463Z,103200.91
2019-03-21T13:47:21.023Z,103194.48
2019-03-21T13:49:50.634Z,103192.73
2019-03-21T13:52:20.227Z,103185.97
2019-03-21T13:54:49.851Z,103191.89
2019-03-21T13:57:19.399Z,103189.69
2019-03-21T13:59:48.968Z,103197.39
2019-03-21T14:02:18.563Z,103198.27
2019-03-21T14:04:48.538Z,103199.41
2019-03-21T14:07:18.189Z,103206.61
2019-03-21T14:09:47.739Z,103201.17
2019-03-21T14:12:17.287Z,103200.31
2019-03-21T14:14:46.875Z,103207.19
2019-03-21T14:17:21.907Z,103205.03
2019-03-21T14:19:48.039Z,103195.97
2019-03-21T14:22:17.586Z,103193.95
2019-03-21T14:24:47.169Z,103187.55
2019-03-21T14:27:16.819Z,103193.53
2019-03-21T14:29:46.408Z,103190.13
2019-03-21T14:32:15.955Z,103182.48
2019-03-21T14:34:45.534Z,103197.81
2019-03-21T14:37:15.466Z,103198.63
2019-03-21T14:39:45.012Z,103202.89
2019-03-21T14:42:14.685Z,103195.16
2019-03-21T14:44:44.242Z,103204.96
2019-03-21T14:47:13.851Z,103211.31
2019-03-21T14:49:43.393Z,103207.14
2019-03-21T14:52:12.937Z,103204.96
2019-03-21T14:54:42.624Z,103214.16
2019-03-21T14:57:12.170Z,103211.17
2019-03-21T14:59:41.760Z,103207.76
2019-03-21T15:02:11.304Z,103212.45
2019-03-21T15:04:41.258Z,103207.30
2019-03-21T15:07:10.843Z,103204.77
2019-03-21T15:09:40.468Z,103214.05
2019-03-21T15:12:10.081Z,103203.34
2019-03-21T15:14:39.976Z,103207.14
2019-03-21T15:17:09.560Z,103206.72
2019-03-21T15:19:39.449Z,103194.30
2019-03-21T15:22:09.089Z,103195.95
2019-03-21T15:24:38.631Z,103202.84
2019-03-21T15:27:08.225Z,103201.15
2019-03-21T15:29:37.767Z,103206.30
2019-03-21T15:32:07.310Z,103207.93
2019-03-21T15:34:36.902Z,103205.19
2019-03-21T15:37:06.455Z,103203.48
2019-03-21T15:39:36.046Z,103197.52
2019-03-21T15:42:05.597Z,103196.20
2019-03-21T15:44:35.076Z,103190.63
2019-03-21T15:47:04.654Z,103197.94
2019-03-21T15:49:34.240Z,103205.16
2019-03-21T15:52:03.891Z,103207.16
2019-03-21T15:54:33.485Z,103215.28
2019-03-21T15:57:03.032Z,103214.83
2019-03-21T15:59:32.581Z,103210.97
2019-03-21T16:02:02.158Z,103201.61
2019-03-21T16:04:31.792Z,103204.54
2019-03-21T16:07:01.344Z,103202.39
2019-03-21T16:09:30.936Z,103206.70
2019-03-21T16:12:00.527Z,103202.81
2019-03-21T16:14:30.025Z,103197.60
2019-03-21T16:16:59.624Z,103196.39
2019-03-21T16:19:29.923Z,103212.55
2019-03-21T16:21:59.607Z,103216.78
2019-03-21T16:24:29.196Z,103211.69
2019-03-21T16:26:58.739Z,103211.66
2019-03-21T16:29:30.256Z,103211.25
2019-03-21T16:32:02.326Z,103213.34
2019-03-21T16:34:31.118Z,103219.30
2019-03-21T16:37:00.697Z,103215.01
2019-03-21T16:39:30.281Z,103215.83
2019-03-21T16:41:59.826Z,103207.62
2019-03-21T16:44:29.345Z,103218.70
2019-03-21T16:46:58.923Z,103212.73
2019-03-21T16:49:30.798Z,103222.09
2019-03-21T16:52:00.171Z,103227.69
2019-03-21T16:54:30.375Z,103217.84
2019-03-21T16:57:00.004Z,103218.27
2019-03-21T16:59:29.543Z,103225.89
2019-03-21T17:01:59.131Z,103225.34
2019-03-21T17:04:28.684Z,103220.89
2019-03-21T17:06:58.329Z,103231.02
2019-03-21T17:09:27.878Z,103221.66
2019-03-21T17:11:57.449Z,103222.89
2019-03-21T17:14:26.914Z,103221.17
2019-03-21T17:16:56.559Z,103221.17
2019-03-21T17:19:26.133Z,103225.95
2019-03-21T17:21:55.802Z,103217.30
2019-03-21T17:24:29.628Z,103213.00
2019-03-21T17:26:56.903Z,103211.27
2019-03-21T17:29:26.604Z,103216.78
2019-03-21T17:31:56.147Z,103207.44
2019-03-21T17:34:25.703Z,103209.89
2019-03-21T17:36:55.320Z,103216.69
2019-03-21T17:39:25.248Z,103221.23
2019-03-21T17:41:57.696Z,103227.30
2019-03-21T17:44:27.652Z,103221.00
2019-03-21T17:46:57.293Z,103222.67
2019-03-21T17:49:26.901Z,103223.47
2019-03-21T17:51:56.433Z,103225.91
2019-03-21T17:54:25.983Z,103230.05
2019-03-21T17:56:55.673Z,103228.31
2019-03-21T17:59:25.281Z,103230.31
2019-03-21T18:01:55.114Z,103230.75
2019-03-21T18:04:24.763Z,103234.57
2019-03-21T18:06:54.452Z,103232.27
2019-03-21T18:09:23.994Z,103240.80
2019-03-21T18:11:53.583Z,103251.87
2019-03-21T18:14:23.142Z,103248.97
2019-03-21T18:16:52.832Z,103265.58
2019-03-21T18:19:22.419Z,103267.25
2019-03-21T18:21:51.994Z,103254.12
2019-03-21T18:24:21.586Z,103240.02
2019-03-21T18:26:51.126Z,103245.89
2019-03-21T18:29:20.667Z,103256.16
2019-03-21T18:31:50.247Z,103256.27
2019-03-21T18:34:19.849Z,103256.66
2019-03-21T18:36:49.392Z,103258.70
2019-03-21T18:39:18.934Z,103261.13
2019-03-21T18:41:48.440Z,103252.66
2019-03-21T18:44:17.983Z,103259.56
2019-03-21T18:46:47.571Z,103262.47
2019-03-21T18:49:17.137Z,103266.14
2019-03-21T18:51:46.763Z,103266.92
2019-03-21T18:54:16.315Z,103270.48
2019-03-21T18:56:46.022Z,103273.78
2019-03-21T18:59:15.649Z,103283.09
2019-03-21T19:01:57.669Z,103286.60
2019-03-21T19:04:16.515Z,103286.52
2019-03-21T19:06:46.194Z,103292.00
2019-03-21T19:09:15.749Z,103299.12
2019-03-21T19:11:45.329Z,103297.80
2019-03-21T19:14:15.449Z,103299.38
2019-03-21T19:16:45.000Z,103300.32
2019-03-21T19:19:14.535Z,103300.22
2019-03-21T19:21:44.120Z,103306.14
2019-03-21T19:24:13.685Z,103304.87
2019-03-21T19:26:43.264Z,103307.36
2019-03-21T19:29:14.977Z,103307.83
2019-03-21T19:31:44.123Z,103309.49
2019-03-21T19:34:13.703Z,103317.98
2019-03-21T19:36:43.355Z,103320.87
2019-03-21T19:39:12.982Z,103320.98
2019-03-21T19:41:42.568Z,103314.11
2019-03-21T19:44:12.109Z,103310.79
2019-03-21T19:46:41.615Z,103315.49
2019-03-21T19:49:11.480Z,103310.06
2019-03-21T19:51:41.126Z,103322.36
2019-03-21T19:54:10.799Z,103336.31
2019-03-21T19:56:40.387Z,103343.89
2019-03-21T19:59:09.959Z,103336.25
2019-03-21T20:01:39.468Z,103353.22
2019-03-21T20:04:09.065Z,103353.19
2019-03-21T20:06:38.649Z,103352.42
2019-03-21T20:09:08.776Z,103344.30
2019-03-21T20:11:38.360Z,103339.30
2019-03-21T20:14:07.979Z,103331.32
2019-03-21T20:16:37.584Z,103331.30
2019-03-21T20:19:07.129Z,103321.52
2019-03-21T20:21:47.333Z,103315.19
2019-03-21T20:24:08.130Z,103313.00
2019-03-21T20:26:37.675Z,103318.81
2019-03-21T20:29:07.263Z,103304.76
2019-03-21T20:31:36.853Z,103306.45
2019-03-21T20:34:06.457Z,103308.22
2019-03-21T20:36:36.064Z,103317.87
2019-03-21T20:39:07.874Z,103306.50
2019-03-21T20:41:37.514Z,103309.00
2019-03-21T20:44:15.180Z,103308.19
2019-03-21T20:46:38.312Z,103310.27
2019-03-21T20:49:08.150Z,103320.37
2019-03-21T20:51:37.829Z,103321.59
2019-03-21T20:54:07.479Z,103327.63
2019-03-21T20:56:37.067Z,103323.38
2019-03-21T20:59:06.709Z,103337.00
2019-03-21T21:01:36.286Z,103334.04
2019-03-21T21:04:05.876Z,103331.91
2019-03-21T21:06:35.414Z,103325.07
2019-03-21T21:09:07.043Z,103338.58
2019-03-21T21:11:36.654Z,103325.07
2019-03-21T21:14:06.200Z,103330.94
2019-03-21T21:16:35.789Z,103320.17
2019-03-21T21:19:05.356Z,103311.73
2019-03-21T21:21:34.947Z,103304.31
2019-03-21T21:24:04.846Z,103300.20
2019-03-21T21:26:34.429Z,103311.95
2019-03-21T21:29:04.071Z,103308.52
2019-03-21T21:31:33.626Z,103312.69
2019-03-21T21:34:03.145Z,103308.08
2019-03-21T21:36:32.774Z,103313.94
2019-03-21T21:39:02.310Z,103299.85
2019-03-21T21:41:32.009Z,103298.99
2019-03-21T21:44:01.483Z,103302.84
2019-03-21T21:46:31.806Z,103296.39
2019-03-21T21:49:01.348Z,103299.32
2019-03-21T21:51:30.886Z,103301.57
2019-03-21T21:54:00.577Z,103300.18
2019-03-21T21:56:30.118Z,103311.21
2019-03-21T21:58:59.667Z,103308.02
2019-03-21T22:01:29.233Z,103305.79
2019-03-21T22:04:04.659Z,103305.47
2019-03-21T22:06:30.262Z,103301.59
2019-03-21T22:08:59.932Z,103307.25
2019-03-21T22:11:29.523Z,103299.52
2019-03-21T22:13:59.073Z,103302.16
2019-03-21T22:16:28.783Z,103299.97
2019-03-21T22:18:58.622Z,103297.92
2019-03-21T22:21:28.176Z,103302.25
2019-03-21T22:23:57.757Z,103313.70
2019-03-21T22:26:29.801Z,103309.76
2019-03-21T22:28:58.708Z,103317.84
2019-03-21T22:31:28.255Z,103316.30
2019-03-21T22:33:57.841Z,103314.65
2019-03-21T22:36:27.385Z,103317.61
2019-03-21T22:38:56.926Z,103318.44
2019-03-21T22:41:26.505Z,103318.34
2019-03-21T22:43:56.379Z,103319.70
2019-03-21T22:46:25.961Z,103318.41
2019-03-21T22:48:55.479Z,103319.11
2019-03-21T22:51:25.024Z,103319.91
2019-03-21T22:53:54.891Z,103319.46
2019-03-21T22:56:24.724Z,103321.63
2019-03-21T22:58:54.239Z,103317.80
2019-03-21T23:01:23.914Z,103309.79
2019-03-21T23:03:53.494Z,103313.31
2019-03-21T23:06:23.183Z,103313.31
2019-03-21T23:08:53.066Z,103300.32
2019-03-21T23:11:22.761Z,103310.84
2019-03-21T23:13:52.343Z,103298.52
2019-03-21T23:16:21.985Z,103304.08
2019-03-21T23:18:51.578Z,103311.77
2019-03-21T23:21:21.122Z,103313.42
2019-03-21T23:23:50.672Z,103318.83
2019-03-21T23:26:20.266Z,103318.70
2019-03-21T23:28:49.911Z,103320.93
2019-03-21T23:31:19.478Z,103325.63
2019-03-21T23:33:49.162Z,103321.91
2019-03-21T23:36:18.745Z,103309.45
2019-03-21T23:38:48.289Z,103313.68
2019-03-21T23:41:18.189Z,103310.31
2019-03-21T23:43:47.734Z,103318.23
2019-03-21T23:46:17.320Z,103323.47
2019-03-21T23:48:46.862Z,103326.78
2019-03-21T23:51:16.443Z,103327.35
2019-03-21T23:53:46.365Z,103328.97
2019-03-21T23:56:15.951Z,103325.63
2019-03-21T23:58:45.495Z,103326.14
